Time;durP1;ratioP1;P1;durP2;ratioP2;P2;SDS_P1;SDS_P2;PMS_P1;PMS_P2;Temp;Humidity;BMP_temperature;BMP_pressure;BME280_temperature;BME280_humidity;BME280_pressure;Samples;Min_cycle;Max_cycle;Signal;HPM_P1;HPM_P2
2020/12/23 00:00:25;;;;;;;;;32.75;28.00;;;;;1.47;78.39;101672.16;3725339;38;20539;-62
2020/12/23 00:02:53;;;;;;;;;31.75;29.25;;;;;1.45;78.39;101677.56;3725411;37;20520;-63
2020/12/23 00:05:20;;;;;;;;;29.00;22.25;;;;;1.49;78.48;101680.91;3725747;37;20624;-62
2020/12/23 00:07:47;;;;;;;;;31.75;25.75;;;;;1.33;78.46;101647.19;3725975;37;20546;-63
2020/12/23 00:10:13;;;;;;;;;22.25;17.75;;;;;1.42;78.24;101659.09;3725792;38;20538;-62
2020/12/23 00:12:39;;;;;;;;;36.50;30.00;;;;;1.48;78.20;101664.03;3725980;37;20511;-62
2020/12/23 00:15:07;;;;;;;;;32.50;26.00;;;;;1.49;78.23;101664.91;3725761;38;20529;-61
2020/12/23 00:17:35;;;;;;;;;30.50;26.25;;;;;1.42;78.39;101651.09;3725943;37;20536;-62
2020/12/23 00:20:02;;;;;;;;;30.00;23.75;;;;;1.46;78.54;101662.44;3725668;37;20500;-61
2020/12/23 00:22:30;;;;;;;;;31.75;24.75;;;;;1.38;78.53;101648.72;3725861;37;20757;-62
2020/12/23 00:24:56;;;;;;;;;28.50;22.25;;;;;1.39;78.40;101655.78;3725557;38;20596;-61
2020/12/23 00:27:24;;;;;;;;;34.50;28.00;;;;;1.36;78.72;101645.28;3726048;37;20493;-61
2020/12/23 00:29:50;;;;;;;;;25.75;19.50;;;;;1.40;78.35;101658.34;3725585;37;20509;-62
2020/12/23 00:32:26;;;;;;;;;29.50;24.50;;;;;1.49;78.31;101676.44;3726046;37;20486;-63
2020/12/23 00:34:52;;;;;;;;;40.75;26.25;;;;;1.56;78.82;101680.38;3725873;37;20495;-64
2020/12/23 00:37:19;;;;;;;;;42.25;30.25;;;;;1.49;78.61;101665.75;3725821;38;20472;-62
2020/12/23 00:39:46;;;;;;;;;30.25;24.75;;;;;1.60;78.52;101665.91;3725954;37;20520;-62
2020/12/23 00:42:13;;;;;;;;;34.50;27.25;;;;;1.56;78.65;101664.37;3725809;37;20540;-62
2020/12/23 00:44:42;;;;;;;;;30.75;23.50;;;;;1.56;78.86;101659.03;3725567;37;20461;-62
2020/12/23 00:47:10;;;;;;;;;28.25;24.00;;;;;1.59;78.55;101658.84;3726179;37;20450;-63
2020/12/23 00:49:36;;;;;;;;;28.50;23.75;;;;;1.55;78.01;101661.84;3725816;37;20551;-62
2020/12/23 00:52:03;;;;;;;;;32.00;23.00;;;;;1.51;78.33;101661.19;3725423;37;20470;-63
2020/12/23 00:54:35;;;;;;;;;34.00;30.00;;;;;1.47;78.26;101657.00;3725595;37;20466;-61
2020/12/23 00:57:03;;;;;;;;;30.50;23.50;;;;;1.47;78.57;101641.00;3725710;37;20463;-62
2020/12/23 00:59:30;;;;;;;;;33.75;24.25;;;;;1.50;78.53;101632.78;3725107;38;20441;-60
2020/12/23 01:02:00;;;;;;;;;32.75;27.25;;;;;1.35;78.52;101600.91;3725394;37;20438;-62
2020/12/23 01:04:28;;;;;;;;;28.75;23.75;;;;;1.50;78.40;101621.25;3725025;37;20474;-62
2020/12/23 01:06:57;;;;;;;;;34.25;26.50;;;;;1.50;78.62;101626.59;3725532;38;20467;-62
2020/12/23 01:09:24;;;;;;;;;26.50;21.25;;;;;1.51;78.95;101620.31;3725975;37;20427;-62
2020/12/23 01:11:53;;;;;;;;;33.75;25.75;;;;;1.56;79.12;101616.34;3725886;37;20437;-62
2020/12/23 01:14:29;;;;;;;;;29.00;23.75;;;;;1.66;78.86;101616.63;3725563;37;20440;-61
2020/12/23 01:16:55;;;;;;;;;30.25;27.00;;;;;1.66;78.60;101600.59;3725994;38;20413;-61
2020/12/23 01:19:21;;;;;;;;;36.00;25.00;;;;;1.69;78.83;101604.88;3725851;37;20449;-62
2020/12/23 01:21:50;;;;;;;;;27.00;25.50;;;;;1.69;78.82;101600.41;3725813;37;20550;-60
2020/12/23 01:24:19;;;;;;;;;29.50;23.25;;;;;1.79;78.62;101595.31;3725952;38;20428;-61
2020/12/23 01:26:45;;;;;;;;;29.75;28.50;;;;;1.81;78.68;101591.59;3725847;37;20410;-61
2020/12/23 01:29:12;;;;;;;;;25.75;24.25;;;;;1.84;78.82;101588.72;3606518;38;2387275;-61
2020/12/23 01:31:41;;;;;;;;;28.25;24.25;;;;;1.86;78.75;101573.47;3528843;38;20383;-61
2020/12/23 01:34:08;;;;;;;;;25.00;25.00;;;;;1.88;78.74;101578.69;3725823;37;20408;-61
2020/12/23 01:36:35;;;;;;;;;33.75;29.00;;;;;1.84;78.49;101572.69;3725771;38;20397;-61
2020/12/23 01:39:04;;;;;;;;;35.00;28.50;;;;;1.83;78.73;101571.00;3725592;38;20411;-61
2020/12/23 01:41:33;;;;;;;;;32.25;28.00;;;;;1.87;78.78;101582.31;3726147;37;20423;-61
2020/12/23 01:44:00;;;;;;;;;32.00;26.50;;;;;1.96;78.69;101568.34;3725894;37;20386;-61
2020/12/23 01:46:32;;;;;;;;;27.25;23.00;;;;;1.99;78.47;101570.81;3725755;38;20398;-61
2020/12/23 01:49:04;;;;;;;;;32.75;24.75;;;;;1.98;78.84;101563.78;3726209;37;20372;-61
2020/12/23 01:51:31;;;;;;;;;25.75;23.00;;;;;1.96;78.94;101555.00;3725854;37;20397;-65
2020/12/23 01:53:58;;;;;;;;;33.00;25.75;;;;;1.90;79.31;101556.28;3725687;38;20365;-63
2020/12/23 01:56:35;;;;;;;;;39.25;28.50;;;;;1.91;79.48;101560.66;3725591;38;20385;-62
2020/12/23 01:59:04;;;;;;;;;33.00;25.25;;;;;1.94;79.49;101562.25;3726010;37;20407;-62
2020/12/23 02:01:36;;;;;;;;;33.50;27.50;;;;;1.97;79.49;101559.37;3725957;37;20349;-61
2020/12/23 02:04:03;;;;;;;;;34.00;29.50;;;;;1.86;79.55;101541.44;3726188;38;20356;-63
2020/12/23 02:06:32;;;;;;;;;23.00;20.25;;;;;1.97;80.08;101551.38;3725992;38;20357;-64
2020/12/23 02:09:01;;;;;;;;;33.75;27.25;;;;;1.95;80.01;101554.16;3726568;37;20369;-61
2020/12/23 02:11:28;;;;;;;;;27.25;22.50;;;;;2.02;80.09;101554.59;3726065;38;20345;-61
2020/12/23 02:13:55;;;;;;;;;33.00;25.00;;;;;1.99;79.91;101550.31;3725784;37;20368;-61
2020/12/23 02:16:21;;;;;;;;;32.75;26.25;;;;;1.97;80.05;101540.69;3725268;37;20327;-61
2020/12/23 02:18:48;;;;;;;;;28.75;26.00;;;;;1.94;80.54;101548.91;3725860;37;20373;-62
2020/12/23 02:21:16;;;;;;;;;37.00;29.75;;;;;1.94;80.59;101548.91;3725798;38;20343;-62
2020/12/23 02:23:43;;;;;;;;;31.00;25.50;;;;;1.98;80.94;101534.41;3726093;38;20335;-63
2020/12/23 02:26:11;;;;;;;;;34.25;29.25;;;;;2.02;80.84;101543.06;3725863;38;20338;-61
2020/12/23 02:28:38;;;;;;;;;39.75;30.75;;;;;2.03;80.93;101536.75;3725608;38;20334;-61
2020/12/23 02:31:05;;;;;;;;;31.50;26.00;;;;;1.97;80.98;101522.88;3725973;37;20364;-59
2020/12/23 02:33:31;;;;;;;;;29.00;26.25;;;;;1.98;80.82;101534.41;3725536;37;20330;-61
2020/12/23 02:35:58;;;;;;;;;35.25;33.00;;;;;2.01;81.15;101522.66;3725918;38;20319;-59
2020/12/23 02:38:26;;;;;;;;;29.50;26.25;;;;;1.99;81.05;101528.09;3725934;38;20315;-61
2020/12/23 02:40:52;;;;;;;;;29.50;26.25;;;;;1.82;81.04;101525.72;3725617;37;20296;-61
2020/12/23 02:43:24;;;;;;;;;32.75;26.50;;;;;1.80;81.26;101524.97;3726079;37;20298;-61
2020/12/23 02:45:51;;;;;;;;;30.50;27.50;;;;;1.70;81.20;101522.06;3726064;37;20314;-61
2020/12/23 02:48:17;;;;;;;;;33.50;29.25;;;;;1.64;81.36;101528.66;3726045;38;20317;-61
2020/12/23 02:50:44;;;;;;;;;30.75;27.25;;;;;1.62;82.01;101535.06;3725945;37;20303;-61
2020/12/23 02:53:11;;;;;;;;;37.25;30.00;;;;;1.54;81.94;101518.72;3725947;38;20304;-61
2020/12/23 02:55:37;;;;;;;;;38.75;30.50;;;;;1.56;82.42;101524.81;3725930;38;20290;-60
2020/12/23 02:58:04;;;;;;;;;24.75;24.75;;;;;1.56;82.52;101530.97;3725912;38;20377;-62
2020/12/23 03:00:30;;;;;;;;;35.75;27.75;;;;;1.60;82.20;101518.28;3725836;37;20273;-61
2020/12/23 03:02:56;;;;;;;;;36.00;22.75;;;;;1.62;82.06;101527.06;3725803;38;20278;-60
2020/12/23 03:05:23;;;;;;;;;29.75;23.50;;;;;1.58;82.29;101534.41;3725938;37;20307;-61
2020/12/23 03:07:49;;;;;;;;;27.50;25.50;;;;;1.54;82.47;101524.94;3725832;38;20289;-61
2020/12/23 03:10:16;;;;;;;;;25.50;23.50;;;;;1.64;82.60;101531.31;3726012;38;20287;-61
2020/12/23 03:12:43;;;;;;;;;31.50;28.25;;;;;1.71;83.21;101533.59;3725874;37;20254;-61
2020/12/23 03:15:11;;;;;;;;;35.75;30.50;;;;;1.66;83.13;101524.06;3726126;38;20260;-62
2020/12/23 03:17:39;;;;;;;;;29.50;25.75;;;;;1.63;82.91;101516.28;3725671;37;20267;-61
2020/12/23 03:20:05;;;;;;;;;31.25;25.50;;;;;1.55;83.03;101520.44;3725654;38;20259;-62
2020/12/23 03:22:32;;;;;;;;;32.75;25.25;;;;;1.53;82.86;101522.34;3725897;38;20281;-61
2020/12/23 03:25:04;;;;;;;;;37.50;29.25;;;;;1.43;83.11;101503.44;3725967;38;20252;-61
2020/12/23 03:27:38;;;;;;;;;34.25;31.25;;;;;1.45;83.29;101506.84;3725819;37;20284;-61
2020/12/23 03:30:05;;;;;;;;;35.75;27.25;;;;;1.34;83.33;101482.72;3726057;37;20228;-61
2020/12/23 03:32:32;;;;;;;;;31.75;25.50;;;;;1.56;83.65;101511.47;3725449;38;20275;-61
2020/12/23 03:34:58;;;;;;;;;35.75;28.75;;;;;1.57;83.56;101511.34;3725542;37;20231;-60
2020/12/23 03:37:25;;;;;;;;;36.25;29.00;;;;;1.48;83.37;101496.00;3725776;37;20245;-61
2020/12/23 03:39:53;;;;;;;;;35.00;27.00;;;;;1.55;83.30;101507.97;3725807;37;20240;-60
2020/12/23 03:42:20;;;;;;;;;36.00;25.50;;;;;1.49;83.33;101488.84;3725788;37;20258;-62
2020/12/23 03:44:46;;;;;;;;;30.75;21.75;;;;;1.55;83.08;101507.09;3725964;37;20256;-60
2020/12/23 03:47:16;;;;;;;;;25.75;22.00;;;;;1.58;83.49;101499.72;3725959;37;20221;-60
2020/12/23 03:49:42;;;;;;;;;32.00;22.75;;;;;1.53;83.18;101501.87;3725363;38;20199;-61
2020/12/23 03:52:09;;;;;;;;;25.50;21.75;;;;;1.43;83.50;101514.09;3725824;38;20217;-60
2020/12/23 03:54:39;;;;;;;;;29.25;27.25;;;;;1.45;83.65;101500.66;3725405;37;20214;-61
2020/12/23 03:57:06;;;;;;;;;37.50;27.00;;;;;1.50;83.20;101510.06;3725489;38;20218;-61
2020/12/23 03:59:32;;;;;;;;;27.50;24.25;;;;;1.49;83.49;101512.84;3725379;37;20218;-61
2020/12/23 04:01:58;;;;;;;;;30.75;27.25;;;;;1.46;83.57;101505.03;3725854;38;20193;-61
2020/12/23 04:04:25;;;;;;;;;26.25;20.25;;;;;1.49;83.98;101513.69;3725871;38;20197;-62
2020/12/23 04:06:51;;;;;;;;;32.75;26.75;;;;;1.48;83.98;101512.00;3725780;37;20188;-64
2020/12/23 04:09:18;;;;;;;;;36.75;29.25;;;;;1.47;83.76;101515.63;3725949;37;20192;-61
2020/12/23 04:11:46;;;;;;;;;34.00;19.25;;;;;1.46;83.62;101523.72;3725995;38;20223;-61
2020/12/23 04:14:13;;;;;;;;;30.75;26.00;;;;;1.52;83.69;101524.16;3726020;37;20195;-61
2020/12/23 04:16:40;;;;;;;;;30.50;25.25;;;;;1.60;83.56;101524.47;3725957;38;20247;-62
2020/12/23 04:19:06;;;;;;;;;33.50;26.75;;;;;1.56;83.51;101525.66;3726111;37;20201;-61
2020/12/23 04:21:32;;;;;;;;;39.75;33.25;;;;;1.58;83.94;101520.22;3725822;37;20183;-61
2020/12/23 04:23:59;;;;;;;;;38.00;26.00;;;;;1.57;83.37;101527.34;3725673;38;20192;-60
2020/12/23 04:26:26;;;;;;;;;31.50;28.50;;;;;1.57;83.86;101526.50;3725996;38;20176;-61
2020/12/23 04:28:52;;;;;;;;;26.75;23.50;;;;;1.58;83.90;101529.06;3725443;37;20191;-60
2020/12/23 04:31:18;;;;;;;;;32.00;26.00;;;;;1.59;84.25;101535.25;3726002;38;20153;-59
2020/12/23 04:33:45;;;;;;;;;30.50;24.25;;;;;1.61;83.89;101538.69;3725895;37;20159;-61
2020/12/23 04:36:12;;;;;;;;;28.25;23.50;;;;;1.58;83.79;101539.75;3725549;37;20182;-59
2020/12/23 04:38:39;;;;;;;;;30.25;26.00;;;;;1.38;83.80;101513.56;3725639;38;20168;-60
2020/12/23 04:41:05;;;;;;;;;18.50;12.75;;;;;1.43;83.90;101518.59;3726078;37;20137;-60
2020/12/23 04:43:32;;;;;;;;;31.50;24.25;;;;;1.50;84.32;101520.75;3726167;37;20135;-60
2020/12/23 04:45:58;;;;;;;;;35.25;28.50;;;;;1.57;84.47;101513.16;3725615;37;20135;-60
2020/12/23 04:48:26;;;;;;;;;31.50;29.00;;;;;1.55;84.52;101520.44;3725796;37;20151;-61
2020/12/23 04:50:55;;;;;;;;;42.50;33.50;;;;;1.57;84.17;101535.34;3725905;38;20111;-60
2020/12/23 04:53:24;;;;;;;;;35.75;27.75;;;;;1.59;84.17;101527.25;3725789;38;20128;-60
2020/12/23 04:55:52;;;;;;;;;42.00;31.75;;;;;1.63;84.35;101534.97;3725513;38;20136;-60
2020/12/23 04:58:19;;;;;;;;;37.00;31.00;;;;;1.64;83.99;101536.66;3725945;37;20145;-61
2020/12/23 05:00:45;;;;;;;;;36.25;31.75;;;;;1.57;84.16;101535.34;3725762;37;20121;-58
2020/12/23 05:03:12;;;;;;;;;31.75;28.50;;;;;1.60;84.47;101537.81;3725573;38;20125;-59
2020/12/23 05:05:39;;;;;;;;;38.25;32.25;;;;;1.57;84.35;101531.84;3725589;37;20138;-60
2020/12/23 05:08:05;;;;;;;;;42.50;29.50;;;;;1.56;84.71;101536.31;3725863;38;20178;-59
2020/12/23 05:10:31;;;;;;;;;34.25;33.75;;;;;1.55;84.42;101533.78;3725907;37;20152;-60
2020/12/23 05:12:58;;;;;;;;;36.75;28.25;;;;;1.61;84.67;101530.69;3725891;38;20090;-61
2020/12/23 05:15:24;;;;;;;;;44.75;35.00;;;;;1.62;85.01;101535.06;3725882;37;20257;-60
2020/12/23 05:17:53;;;;;;;;;36.00;28.50;;;;;1.42;84.95;101491.06;3725979;37;20105;-60
2020/12/23 05:20:20;;;;;;;;;36.50;32.50;;;;;1.66;84.98;101524.06;3725884;38;20199;-59
2020/12/23 05:22:51;;;;;;;;;35.75;31.50;;;;;1.58;84.83;101513.06;3725908;37;20105;-62
2020/12/23 05:25:18;;;;;;;;;42.25;31.25;;;;;1.68;84.72;101521.31;3725842;38;20115;-62
2020/12/23 05:27:48;;;;;;;;;39.00;31.00;;;;;1.60;84.80;101504.94;3726125;37;20097;-59
2020/12/23 05:30:18;;;;;;;;;41.00;33.50;;;;;1.69;85.19;101522.16;3725818;38;20074;-60
2020/12/23 05:32:47;;;;;;;;;41.00;35.75;;;;;1.65;85.18;101511.69;3725637;37;20115;-60
2020/12/23 05:35:15;;;;;;;;;46.75;36.25;;;;;1.60;85.09;101511.16;3725561;37;20078;-60
2020/12/23 05:37:42;;;;;;;;;42.50;36.25;;;;;1.63;85.29;101520.75;3725778;38;20134;-60
2020/12/23 05:40:14;;;;;;;;;41.50;37.25;;;;;1.66;85.50;101525.88;3725779;37;20096;-59
2020/12/23 05:42:41;;;;;;;;;37.25;35.00;;;;;1.70;85.76;101526.53;3725855;38;20104;-59
2020/12/23 05:45:08;;;;;;;;;55.50;38.50;;;;;1.72;85.56;101524.63;3725942;38;20105;-59
2020/12/23 05:47:34;;;;;;;;;54.75;38.75;;;;;1.79;85.60;101533.94;3725918;37;20116;-59
2020/12/23 05:50:06;;;;;;;;;50.25;38.50;;;;;1.81;85.49;101532.00;3725614;37;20121;-60
2020/12/23 05:52:32;;;;;;;;;46.00;35.50;;;;;1.84;85.85;101530.00;3725762;37;20113;-60
2020/12/23 05:54:59;;;;;;;;;42.00;36.75;;;;;1.85;85.62;101526.38;3725933;37;20105;-59
2020/12/23 05:57:25;;;;;;;;;35.25;32.00;;;;;1.92;85.54;101537.50;3725954;37;21072;-60
2020/12/23 05:59:54;;;;;;;;;47.75;37.50;;;;;1.78;85.72;101516.22;3725775;38;20114;-60
2020/12/23 06:02:41;;;;;;;;;39.50;33.00;;;;;1.91;85.42;101533.09;3725498;38;20078;-59
2020/12/23 06:05:11;;;;;;;;;48.00;38.00;;;;;1.69;85.49;101515.00;3725903;38;20099;-61
2020/12/23 06:07:42;;;;;;;;;44.25;35.25;;;;;1.82;85.69;101528.37;3725854;37;21032;-61
2020/12/23 06:10:13;;;;;;;;;42.50;34.50;;;;;1.78;86.01;101517.06;3726106;37;20093;-60
2020/12/23 06:12:48;;;;;;;;;47.25;37.25;;;;;1.97;85.77;101540.69;3726006;37;20108;-60
2020/12/23 06:15:18;;;;;;;;;47.25;38.50;;;;;1.99;85.63;101542.31;3725421;38;20074;-59
2020/12/23 06:17:48;;;;;;;;;42.25;38.75;;;;;2.02;85.53;101538.56;3725718;38;21067;-59
2020/12/23 06:20:16;;;;;;;;;46.50;39.25;;;;;2.12;85.64;101544.09;3725753;38;20809;-63
2020/12/23 06:22:46;;;;;;;;;30.50;28.75;;;;;2.14;85.29;101544.84;3725891;37;20083;-60
2020/12/23 06:25:15;;;;;;;;;45.25;38.00;;;;;2.16;85.52;101551.81;3725964;38;21005;-60
2020/12/23 06:27:42;;;;;;;;;54.00;42.00;;;;;2.16;85.36;101540.28;3725960;37;21039;-60
2020/12/23 06:30:08;;;;;;;;;48.50;39.75;;;;;2.18;85.28;101555.22;3725760;38;21069;-60
2020/12/23 06:32:35;;;;;;;;;58.00;41.75;;;;;2.22;85.68;101566.56;3725914;37;21036;-60
2020/12/23 06:35:06;;;;;;;;;43.75;38.00;;;;;2.21;85.36;101564.84;3725895;37;21037;-60
2020/12/23 06:37:34;;;;;;;;;58.75;43.75;;;;;2.17;85.43;101566.88;3725401;37;21054;-59
2020/12/23 06:40:11;;;;;;;;;50.00;38.75;;;;;2.20;85.36;101565.81;3725643;38;21038;-61
2020/12/23 06:42:44;;;;;;;;;54.75;38.75;;;;;2.05;85.11;101551.72;3725886;38;21033;-60
2020/12/23 06:45:13;;;;;;;;;43.75;38.75;;;;;2.18;85.46;101571.25;3726134;37;21137;-60
2020/12/23 06:47:41;;;;;;;;;46.75;40.00;;;;;2.20;85.49;101566.66;3725972;38;21032;-61
2020/12/23 06:50:44;;;;;;;;;41.00;37.00;;;;;2.17;85.24;101566.88;3725378;38;21054;-60
2020/12/23 06:53:36;;;;;;;;;39.50;35.00;;;;;2.14;85.12;101552.88;3725943;38;20985;-60
2020/12/23 06:56:03;;;;;;;;;38.75;31.25;;;;;2.03;85.57;101550.09;3725976;38;21026;-61
2020/12/23 06:58:55;;;;;;;;;42.00;34.25;;;;;2.38;85.68;101564.53;3725936;38;20997;-60
2020/12/23 07:01:22;;;;;;;;;56.75;40.75;;;;;2.36;85.50;101558.47;3725904;37;20985;-61
2020/12/23 07:03:52;;;;;;;;;56.75;43.50;;;;;2.48;84.94;101567.44;3725680;37;21008;-60
2020/12/23 07:06:35;;;;;;;;;49.75;41.75;;;;;2.48;85.42;101567.44;3725961;37;21010;-62
2020/12/23 07:09:04;;;;;;;;;53.25;41.50;;;;;2.50;85.03;101561.03;3725822;38;21018;-60
2020/12/23 07:11:34;;;;;;;;;60.00;45.00;;;;;2.56;85.36;101544.56;3725820;37;20990;-62
2020/12/23 07:14:00;;;;;;;;;49.25;37.75;;;;;2.53;85.14;101527.88;3726524;37;20999;-63
2020/12/23 07:16:26;;;;;;;;;57.00;42.50;;;;;2.59;85.16;101533.66;3727250;37;21005;-63
2020/12/23 07:18:54;;;;;;;;;50.00;41.25;;;;;2.65;85.04;101546.56;3726112;38;20989;-61
2020/12/23 07:21:26;;;;;;;;;56.00;42.50;;;;;2.60;85.00;101521.97;3726392;37;20995;-65
2020/12/23 07:23:57;;;;;;;;;51.50;39.75;;;;;2.74;84.89;101531.69;3726315;37;21000;-62
2020/12/23 07:26:25;;;;;;;;;46.50;38.50;;;;;2.85;84.80;101539.81;3726780;37;20971;-62
2020/12/23 07:28:52;;;;;;;;;47.75;37.75;;;;;2.87;84.55;101539.69;3726545;37;20999;-62
2020/12/23 07:31:19;;;;;;;;;58.00;42.50;;;;;2.96;84.85;101539.03;3725461;38;21031;-62
2020/12/23 07:33:47;;;;;;;;;56.00;42.75;;;;;2.99;84.86;101541.50;3726521;38;20973;-62
2020/12/23 07:36:14;;;;;;;;;55.00;41.00;;;;;3.10;84.54;101530.00;3726064;38;20953;-62
2020/12/23 07:38:42;;;;;;;;;51.25;39.25;;;;;3.15;84.42;101519.81;3725367;37;21256;-61
2020/12/23 07:41:12;;;;;;;;;53.75;41.00;;;;;2.85;84.29;101459.59;3725387;38;20934;-62
2020/12/23 07:43:40;;;;;;;;;48.00;37.50;;;;;3.24;84.38;101530.69;3725254;37;21000;-61
2020/12/23 07:46:08;;;;;;;;;46.50;35.75;;;;;3.20;84.37;101506.94;3725296;37;20955;-66
2020/12/23 07:48:34;;;;;;;;;44.50;34.75;;;;;3.24;83.53;101514.63;3725602;38;20956;-59
2020/12/23 07:51:01;;;;;;;;;38.75;34.25;;;;;3.44;83.60;101521.19;3726224;38;20957;-62
2020/12/23 07:53:30;;;;;;;;;37.75;35.25;;;;;3.51;83.88;101522.44;3725396;38;20942;-63
2020/12/23 07:56:07;;;;;;;;;38.50;34.25;;;;;3.58;83.73;101521.03;3725220;38;20879;-63
2020/12/23 07:58:43;;;;;;;;;34.25;29.75;;;;;3.74;83.35;101528.72;3726230;37;20874;-61
2020/12/23 08:01:12;;;;;;;;;35.75;29.50;;;;;3.78;82.90;101530.22;3725988;38;20951;-61
2020/12/23 08:03:39;;;;;;;;;40.25;32.25;;;;;3.60;82.50;101500.34;3726014;38;20882;-62
2020/12/23 08:06:08;;;;;;;;;37.00;32.50;;;;;3.87;82.75;101542.03;3725460;38;20907;-61
2020/12/23 08:08:36;;;;;;;;;40.00;33.50;;;;;3.88;82.49;101546.44;3725895;38;20931;-61
2020/12/23 08:11:14;;;;;;;;;41.00;32.00;;;;;3.88;82.76;101541.94;3725826;37;20879;-62
2020/12/23 08:13:41;;;;;;;;;35.50;29.75;;;;;3.94;81.87;101541.47;3725618;38;20883;-61
2020/12/23 08:16:12;;;;;;;;;33.50;26.25;;;;;3.77;81.88;101514.25;3725752;38;20883;-62
2020/12/23 08:18:42;;;;;;;;;34.75;30.25;;;;;4.06;81.77;101545.03;3726128;38;20882;-62
2020/12/23 08:21:17;;;;;;;;;34.25;30.25;;;;;4.15;81.55;101536.28;3725659;38;20841;-61
2020/12/23 08:23:43;;;;;;;;;36.00;31.50;;;;;4.17;81.23;101536.16;3726177;37;20865;-62
2020/12/23 08:26:11;;;;;;;;;37.75;32.00;;;;;4.17;81.44;101537.00;3726060;37;20832;-62
2020/12/23 08:28:40;;;;;;;;;39.00;32.25;;;;;4.30;80.97;101545.81;3725848;37;20837;-61
2020/12/23 08:31:11;;;;;;;;;37.50;29.75;;;;;4.25;80.88;101537.25;3725617;37;20831;-62
2020/12/23 08:33:45;;;;;;;;;39.25;34.50;;;;;4.31;80.79;101542.16;3725756;38;20851;-62
2020/12/23 08:36:12;;;;;;;;;37.75;34.00;;;;;4.33;80.16;101534.00;3726174;38;20834;-62
2020/12/23 08:38:42;;;;;;;;;39.50;33.25;;;;;4.35;80.02;101539.22;3726064;37;20832;-62
2020/12/23 08:41:21;;;;;;;;;50.00;39.00;;;;;4.29;80.00;101536.06;3725688;38;21181;-63
2020/12/23 08:43:53;;;;;;;;;41.00;32.00;;;;;4.31;79.73;101534.09;3726337;38;20884;-63
2020/12/23 08:46:24;;;;;;;;;33.00;29.25;;;;;4.37;79.37;101534.59;3725864;37;20840;-62
2020/12/23 08:48:51;;;;;;;;;51.25;42.00;;;;;4.19;79.06;101499.38;3725654;37;20822;-63
2020/12/23 08:51:21;;;;;;;;;41.75;35.00;;;;;4.24;79.47;101505.22;3725979;37;20840;-62
2020/12/23 08:53:56;;;;;;;;;34.25;30.25;;;;;4.41;79.53;101520.84;3726006;37;20818;-62
2020/12/23 08:56:27;;;;;;;;;40.75;33.50;;;;;4.41;78.80;101506.59;3726121;38;20800;-63
2020/12/23 08:59:01;;;;;;;;;36.25;31.50;;;;;4.53;79.51;101511.84;3726102;38;20837;-62
2020/12/23 09:01:30;;;;;;;;;41.50;32.25;;;;;4.61;78.42;101508.56;3725894;37;20793;-61
2020/12/23 09:04:04;;;;;;;;;36.00;32.00;;;;;4.68;78.35;101509.75;3726273;37;20823;-62
2020/12/23 09:06:31;;;;;;;;;38.75;32.75;;;;;4.71;78.33;101497.91;3725991;37;20777;-63
2020/12/23 09:09:12;;;;;;;;;41.25;33.25;;;;;4.67;78.29;101500.03;3725935;37;20792;-62
2020/12/23 09:12:01;;;;;;;;;31.75;27.75;;;;;4.64;78.20;101492.22;3725998;38;20785;-62
2020/12/23 09:14:29;;;;;;;;;34.75;29.50;;;;;4.70;77.73;101489.03;3726039;37;20797;-62
2020/12/23 09:17:22;;;;;;;;;34.00;31.00;;;;;4.64;77.41;101468.94;3726082;37;20770;-62
2020/12/23 09:20:03;;;;;;;;;34.75;30.00;;;;;4.74;77.82;101466.34;3726369;38;20805;-62
2020/12/23 09:22:43;;;;;;;;;34.50;30.25;;;;;4.70;77.68;101451.50;3725603;38;20756;-62
2020/12/23 09:25:20;;;;;;;;;37.50;30.50;;;;;4.89;77.42;101477.69;3725816;38;20785;-62
2020/12/23 09:27:51;;;;;;;;;35.25;29.25;;;;;4.79;76.50;101471.34;3726043;38;20771;-62
2020/12/23 09:30:46;;;;;;;;;38.25;31.00;;;;;4.81;76.88;101480.97;3727296;38;20751;-61
2020/12/23 09:33:15;;;;;;;;;35.50;32.75;;;;;4.82;76.60;101482.69;3726675;38;20762;-62
2020/12/23 09:35:49;;;;;;;;;37.25;30.00;;;;;4.88;77.03;101473.28;3727653;37;20773;-62
2020/12/23 09:38:24;;;;;;;;;34.75;32.00;;;;;4.85;76.69;101471.72;3726786;37;20746;-64
2020/12/23 09:40:52;;;;;;;;;22.25;20.00;;;;;4.82;76.61;101466.59;3726301;37;20765;-63
2020/12/23 09:43:23;;;;;;;;;33.75;31.00;;;;;4.90;77.07;101472.19;3726207;38;20714;-63
2020/12/23 09:45:53;;;;;;;;;28.00;26.25;;;;;4.87;76.69;101464.37;3726180;38;20748;-62
2020/12/23 09:48:21;;;;;;;;;38.25;31.25;;;;;4.75;76.63;101443.94;3725720;37;20760;-63
2020/12/23 09:50:48;;;;;;;;;33.00;28.00;;;;;4.87;76.67;101461.72;3725606;37;20762;-60
2020/12/23 09:53:16;;;;;;;;;32.00;29.00;;;;;4.95;76.97;101456.56;3725809;37;20735;-60
2020/12/23 09:55:44;;;;;;;;;37.50;31.75;;;;;4.97;76.38;101465.34;3725746;38;20756;-62
2020/12/23 09:58:11;;;;;;;;;32.75;28.50;;;;;4.99;76.36;101457.19;3726111;37;20718;-63
2020/12/23 10:00:39;;;;;;;;;31.00;29.50;;;;;4.97;76.13;101467.19;3726159;38;20725;-63
2020/12/23 10:03:08;;;;;;;;;41.00;35.00;;;;;4.92;76.15;101464.88;3725571;37;20767;-60
2020/12/23 10:05:34;;;;;;;;;43.25;33.00;;;;;4.85;76.16;101450.25;3725538;37;20777;-61
2020/12/23 10:08:02;;;;;;;;;42.00;33.50;;;;;4.91;76.12;101456.94;3726164;38;20738;-60
2020/12/23 10:10:29;;;;;;;;;35.75;31.25;;;;;4.69;76.68;101430.16;3725817;37;20726;-60
2020/12/23 10:12:56;;;;;;;;;39.75;34.00;;;;;4.75;76.24;101441.25;3725882;38;20695;-60
2020/12/23 10:15:23;;;;;;;;;39.50;33.50;;;;;4.62;76.34;101408.38;3726145;37;20715;-59
2020/12/23 10:17:49;;;;;;;;;43.25;37.50;;;;;4.81;76.28;101440.75;3726066;38;20731;-59
2020/12/23 10:20:15;;;;;;;;;45.00;35.50;;;;;3.93;76.57;101289.84;3726053;38;20720;-59
2020/12/23 10:22:42;;;;;;;;;40.50;34.00;;;;;4.78;76.84;101424.06;3725965;37;20729;-60
2020/12/23 10:25:09;;;;;;;;;44.75;34.25;;;;;4.80;77.03;101427.47;3725998;38;20736;-60
2020/12/23 10:27:35;;;;;;;;;46.25;36.75;;;;;4.86;77.06;101426.97;3726191;37;20691;-61
2020/12/23 10:30:09;;;;;;;;;47.50;34.75;;;;;4.82;76.72;101415.63;3726092;38;20696;-60
2020/12/23 10:32:38;;;;;;;;;43.50;34.75;;;;;4.82;77.00;101415.63;3725899;38;20793;-60
2020/12/23 10:35:05;;;;;;;;;36.50;32.75;;;;;4.92;76.72;101415.72;3725840;37;20725;-60
2020/12/23 10:37:32;;;;;;;;;41.50;33.00;;;;;4.99;76.44;101414.25;3725749;37;20673;-59
2020/12/23 10:39:58;;;;;;;;;42.00;33.75;;;;;4.99;76.62;101406.22;3725581;38;20710;-59
2020/12/23 10:42:30;;;;;;;;;35.75;31.00;;;;;4.98;76.82;101399.97;3726038;37;20683;-58
2020/12/23 10:44:56;;;;;;;;;40.00;34.00;;;;;5.10;76.13;101410.69;3726083;38;20670;-59
2020/12/23 10:47:23;;;;;;;;;35.75;32.00;;;;;5.16;76.27;101388.72;3726086;37;20672;-60
2020/12/23 10:49:50;;;;;;;;;40.50;35.50;;;;;5.31;75.79;101400.81;3725951;37;20657;-59
2020/12/23 10:52:19;;;;;;;;;38.75;34.75;;;;;5.30;75.59;101389.22;3725920;37;20668;-59
2020/12/23 10:54:46;;;;;;;;;35.25;33.00;;;;;5.24;74.92;101378.16;3726084;37;20655;-60
2020/12/23 10:57:13;;;;;;;;;38.50;34.75;;;;;5.33;75.50;101380.91;3726079;37;20656;-60
2020/12/23 10:59:41;;;;;;;;;36.75;31.75;;;;;5.30;75.28;101383.84;3726335;37;20641;-59
2020/12/23 11:02:07;;;;;;;;;41.50;33.75;;;;;5.26;74.98;101370.81;3725942;37;20649;-58
2020/12/23 11:04:34;;;;;;;;;38.25;30.75;;;;;5.29;75.11;101365.19;3726094;38;20650;-59
2020/12/23 11:07:01;;;;;;;;;58.75;47.00;;;;;5.23;75.06;101371.09;3726110;37;20655;-60
2020/12/23 11:09:27;;;;;;;;;33.75;32.25;;;;;5.21;75.17;101367.69;3725957;37;20665;-58
2020/12/23 11:11:54;;;;;;;;;40.25;36.50;;;;;5.10;74.82;101373.13;3725839;37;20655;-58
2020/12/23 11:14:21;;;;;;;;;28.50;24.75;;;;;5.15;74.68;101392.38;3726008;37;20637;-60
2020/12/23 11:16:51;;;;;;;;;46.00;37.00;;;;;5.21;74.59;101390.00;3726116;37;20630;-58
2020/12/23 11:19:18;;;;;;;;;38.00;32.25;;;;;5.22;74.56;101390.84;3725972;38;20645;-60
2020/12/23 11:21:45;;;;;;;;;41.75;36.50;;;;;5.15;74.60;101392.38;3725809;37;20627;-58
2020/12/23 11:24:13;;;;;;;;;44.00;36.75;;;;;5.10;74.42;101390.06;3725835;38;20611;-58